sensor_id;sensor_type;location;lat;lon;timestamp;P1;durP1;ratioP1;P2;durP2;ratioP2
42364;SDS011;28498;54.400;18.566;2022-10-23T00:01:17;23.67;;;11.32;;
42364;SDS011;28498;54.400;18.566;2022-10-23T00:03:52;23.67;;;11.35;;
42364;SDS011;28498;54.400;18.566;2022-10-23T00:06:23;25.45;;;12.65;;
42364;SDS011;28498;54.400;18.566;2022-10-23T00:08:51;22.38;;;11.65;;
42364;SDS011;28498;54.400;18.566;2022-10-23T00:11:20;20.27;;;9.85;;
42364;SDS011;28498;54.400;18.566;2022-10-23T00:13:49;22.98;;;11.57;;
42364;SDS011;28498;54.400;18.566;2022-10-23T00:16:18;21.90;;;11.18;;
42364;SDS011;28498;54.400;18.566;2022-10-23T00:18:45;21.15;;;11.70;;
42364;SDS011;28498;54.400;18.566;2022-10-23T00:21:13;18.33;;;10.27;;
42364;SDS011;28498;54.400;18.566;2022-10-23T00:23:41;25.13;;;11.35;;
42364;SDS011;28498;54.400;18.566;2022-10-23T00:26:08;22.73;;;11.10;;
42364;SDS011;28498;54.400;18.566;2022-10-23T00:28:42;25.60;;;10.50;;
42364;SDS011;28498;54.400;18.566;2022-10-23T00:31:10;23.67;;;10.88;;
42364;SDS011;28498;54.400;18.566;2022-10-23T00:33:38;21.90;;;11.55;;
42364;SDS011;28498;54.400;18.566;2022-10-23T00:36:06;23.92;;;11.32;;
42364;SDS011;28498;54.400;18.566;2022-10-23T00:38:35;23.58;;;10.05;;
42364;SDS011;28498;54.400;18.566;2022-10-23T00:41:03;26.65;;;11.98;;
42364;SDS011;28498;54.400;18.566;2022-10-23T00:43:32;24.70;;;11.07;;
42364;SDS011;28498;54.400;18.566;2022-10-23T00:46:19;21.40;;;11.38;;
42364;SDS011;28498;54.400;18.566;2022-10-23T00:48:46;22.05;;;10.95;;
42364;SDS011;28498;54.400;18.566;2022-10-23T00:51:13;22.38;;;11.05;;
42364;SDS011;28498;54.400;18.566;2022-10-23T00:53:40;23.63;;;11.30;;
42364;SDS011;28498;54.400;18.566;2022-10-23T00:56:21;25.50;;;11.05;;
42364;SDS011;28498;54.400;18.566;2022-10-23T00:58:49;31.25;;;12.13;;
42364;SDS011;28498;54.400;18.566;2022-10-23T01:01:17;27.70;;;13.43;;
42364;SDS011;28498;54.400;18.566;2022-10-23T01:03:46;27.38;;;12.07;;
42364;SDS011;28498;54.400;18.566;2022-10-23T01:06:20;21.77;;;11.05;;
42364;SDS011;28498;54.400;18.566;2022-10-23T01:08:58;24.73;;;12.18;;
42364;SDS011;28498;54.400;18.566;2022-10-23T01:17:01;29.40;;;13.07;;
42364;SDS011;28498;54.400;18.566;2022-10-23T01:25:04;28.83;;;13.95;;
42364;SDS011;28498;54.400;18.566;2022-10-23T01:27:35;23.45;;;11.20;;
42364;SDS011;28498;54.400;18.566;2022-10-23T01:30:13;26.77;;;11.90;;
42364;SDS011;28498;54.400;18.566;2022-10-23T01:33:01;22.77;;;10.65;;
42364;SDS011;28498;54.400;18.566;2022-10-23T01:35:52;26.50;;;12.48;;
42364;SDS011;28498;54.400;18.566;2022-10-23T01:38:26;33.35;;;13.35;;
42364;SDS011;28498;54.400;18.566;2022-10-23T01:41:15;23.83;;;12.68;;
42364;SDS011;28498;54.400;18.566;2022-10-23T01:43:55;24.10;;;11.68;;
42364;SDS011;28498;54.400;18.566;2022-10-23T01:46:31;29.60;;;12.73;;
42364;SDS011;28498;54.400;18.566;2022-10-23T01:49:00;27.33;;;12.52;;
42364;SDS011;28498;54.400;18.566;2022-10-23T01:51:29;27.27;;;13.23;;
42364;SDS011;28498;54.400;18.566;2022-10-23T01:53:58;32.75;;;13.68;;
42364;SDS011;28498;54.400;18.566;2022-10-23T01:56:30;29.13;;;12.30;;
42364;SDS011;28498;54.400;18.566;2022-10-23T01:59:00;26.23;;;11.45;;
42364;SDS011;28498;54.400;18.566;2022-10-23T02:01:31;30.08;;;13.68;;
42364;SDS011;28498;54.400;18.566;2022-10-23T02:04:00;29.30;;;12.85;;
42364;SDS011;28498;54.400;18.566;2022-10-23T02:06:30;29.33;;;12.77;;
42364;SDS011;28498;54.400;18.566;2022-10-23T02:08:57;29.67;;;12.75;;
42364;SDS011;28498;54.400;18.566;2022-10-23T02:11:24;29.75;;;12.65;;
42364;SDS011;28498;54.400;18.566;2022-10-23T02:14:02;33.70;;;14.35;;
42364;SDS011;28498;54.400;18.566;2022-10-23T02:16:50;36.25;;;14.43;;
42364;SDS011;28498;54.400;18.566;2022-10-23T02:19:29;35.15;;;14.63;;
42364;SDS011;28498;54.400;18.566;2022-10-23T02:24:35;31.58;;;13.90;;
42364;SDS011;28498;54.400;18.566;2022-10-23T02:27:10;37.20;;;14.25;;
42364;SDS011;28498;54.400;18.566;2022-10-23T02:29:44;32.08;;;13.43;;
42364;SDS011;28498;54.400;18.566;2022-10-23T02:32:17;28.02;;;12.85;;
42364;SDS011;28498;54.400;18.566;2022-10-23T02:34:47;30.42;;;13.52;;
42364;SDS011;28498;54.400;18.566;2022-10-23T02:37:14;28.88;;;13.45;;
42364;SDS011;28498;54.400;18.566;2022-10-23T02:39:41;28.17;;;12.70;;
42364;SDS011;28498;54.400;18.566;2022-10-23T02:42:17;30.15;;;13.77;;
42364;SDS011;28498;54.400;18.566;2022-10-23T02:53:26;31.75;;;16.42;;
42364;SDS011;28498;54.400;18.566;2022-10-23T03:01:28;27.73;;;13.00;;
42364;SDS011;28498;54.400;18.566;2022-10-23T03:04:20;26.73;;;12.32;;
42364;SDS011;28498;54.400;18.566;2022-10-23T03:06:50;37.53;;;13.18;;
42364;SDS011;28498;54.400;18.566;2022-10-23T03:09:17;32.42;;;13.45;;
42364;SDS011;28498;54.400;18.566;2022-10-23T03:11:44;37.17;;;14.25;;
42364;SDS011;28498;54.400;18.566;2022-10-23T03:14:11;75.25;;;35.28;;
42364;SDS011;28498;54.400;18.566;2022-10-23T03:16:39;45.83;;;18.75;;
42364;SDS011;28498;54.400;18.566;2022-10-23T03:19:06;66.28;;;24.67;;
42364;SDS011;28498;54.400;18.566;2022-10-23T03:21:33;44.03;;;18.80;;
42364;SDS011;28498;54.400;18.566;2022-10-23T03:23:59;40.58;;;16.15;;
42364;SDS011;28498;54.400;18.566;2022-10-23T03:26:26;37.92;;;15.35;;
42364;SDS011;28498;54.400;18.566;2022-10-23T03:28:53;55.78;;;21.45;;
42364;SDS011;28498;54.400;18.566;2022-10-23T03:31:20;57.17;;;24.70;;
42364;SDS011;28498;54.400;18.566;2022-10-23T03:33:47;58.22;;;22.27;;
42364;SDS011;28498;54.400;18.566;2022-10-23T03:36:14;59.00;;;24.70;;
42364;SDS011;28498;54.400;18.566;2022-10-23T03:38:41;66.07;;;28.35;;
42364;SDS011;28498;54.400;18.566;2022-10-23T03:41:08;47.88;;;21.25;;
42364;SDS011;28498;54.400;18.566;2022-10-23T03:43:35;41.83;;;18.60;;
42364;SDS011;28498;54.400;18.566;2022-10-23T03:46:02;45.35;;;19.60;;
42364;SDS011;28498;54.400;18.566;2022-10-23T03:48:34;47.72;;;20.45;;
42364;SDS011;28498;54.400;18.566;2022-10-23T03:51:04;41.30;;;18.40;;
42364;SDS011;28498;54.400;18.566;2022-10-23T03:53:31;41.60;;;20.23;;
42364;SDS011;28498;54.400;18.566;2022-10-23T03:55:59;44.30;;;19.50;;
42364;SDS011;28498;54.400;18.566;2022-10-23T03:58:26;43.35;;;19.27;;
42364;SDS011;28498;54.400;18.566;2022-10-23T04:00:53;42.72;;;19.95;;
42364;SDS011;28498;54.400;18.566;2022-10-23T04:03:20;44.53;;;19.10;;
42364;SDS011;28498;54.400;18.566;2022-10-23T04:05:46;33.28;;;17.75;;
42364;SDS011;28498;54.400;18.566;2022-10-23T04:08:17;41.88;;;18.85;;
42364;SDS011;28498;54.400;18.566;2022-10-23T04:10:45;41.60;;;16.88;;
42364;SDS011;28498;54.400;18.566;2022-10-23T04:13:12;35.75;;;16.23;;
42364;SDS011;28498;54.400;18.566;2022-10-23T04:15:39;36.33;;;18.20;;
42364;SDS011;28498;54.400;18.566;2022-10-23T04:18:06;38.67;;;18.92;;
42364;SDS011;28498;54.400;18.566;2022-10-23T04:20:33;38.42;;;17.48;;
42364;SDS011;28498;54.400;18.566;2022-10-23T04:23:00;40.75;;;18.40;;
42364;SDS011;28498;54.400;18.566;2022-10-23T04:25:27;40.42;;;19.02;;
42364;SDS011;28498;54.400;18.566;2022-10-23T04:27:54;37.50;;;19.48;;
42364;SDS011;28498;54.400;18.566;2022-10-23T04:30:21;37.30;;;17.27;;
42364;SDS011;28498;54.400;18.566;2022-10-23T04:32:51;31.98;;;16.35;;
42364;SDS011;28498;54.400;18.566;2022-10-23T04:35:18;33.78;;;17.45;;
42364;SDS011;28498;54.400;18.566;2022-10-23T04:37:46;32.58;;;16.05;;
42364;SDS011;28498;54.400;18.566;2022-10-23T04:40:13;36.53;;;17.13;;
42364;SDS011;28498;54.400;18.566;2022-10-23T04:42:40;36.90;;;17.65;;
42364;SDS011;28498;54.400;18.566;2022-10-23T04:45:07;38.80;;;18.50;;
42364;SDS011;28498;54.400;18.566;2022-10-23T04:47:35;34.88;;;16.60;;
42364;SDS011;28498;54.400;18.566;2022-10-23T04:50:02;34.65;;;15.15;;
42364;SDS011;28498;54.400;18.566;2022-10-23T04:52:29;31.48;;;15.93;;
42364;SDS011;28498;54.400;18.566;2022-10-23T04:54:56;34.97;;;15.93;;
42364;SDS011;28498;54.400;18.566;2022-10-23T04:57:23;35.25;;;15.50;;
42364;SDS011;28498;54.400;18.566;2022-10-23T04:59:50;37.30;;;17.20;;
42364;SDS011;28498;54.400;18.566;2022-10-23T05:02:17;37.97;;;16.52;;
42364;SDS011;28498;54.400;18.566;2022-10-23T05:04:43;31.63;;;13.75;;
42364;SDS011;28498;54.400;18.566;2022-10-23T05:07:10;36.67;;;15.10;;
42364;SDS011;28498;54.400;18.566;2022-10-23T05:09:37;36.28;;;15.35;;
42364;SDS011;28498;54.400;18.566;2022-10-23T05:12:04;29.42;;;14.02;;
42364;SDS011;28498;54.400;18.566;2022-10-23T05:14:31;32.38;;;14.25;;
42364;SDS011;28498;54.400;18.566;2022-10-23T05:19:37;30.48;;;15.52;;
42364;SDS011;28498;54.400;18.566;2022-10-23T05:22:11;26.27;;;13.85;;
42364;SDS011;28498;54.400;18.566;2022-10-23T05:24:39;32.88;;;14.10;;
42364;SDS011;28498;54.400;18.566;2022-10-23T05:27:06;32.97;;;14.50;;
42364;SDS011;28498;54.400;18.566;2022-10-23T05:29:33;32.58;;;14.70;;
42364;SDS011;28498;54.400;18.566;2022-10-23T05:32:01;39.72;;;15.13;;
42364;SDS011;28498;54.400;18.566;2022-10-23T05:34:30;34.95;;;15.43;;
42364;SDS011;28498;54.400;18.566;2022-10-23T05:37:00;36.22;;;13.65;;
42364;SDS011;28498;54.400;18.566;2022-10-23T05:39:28;28.02;;;12.45;;
42364;SDS011;28498;54.400;18.566;2022-10-23T05:41:55;30.83;;;13.95;;
42364;SDS011;28498;54.400;18.566;2022-10-23T05:44:22;27.10;;;13.10;;
42364;SDS011;28498;54.400;18.566;2022-10-23T05:46:49;35.25;;;12.98;;
42364;SDS011;28498;54.400;18.566;2022-10-23T05:49:16;30.48;;;12.90;;
42364;SDS011;28498;54.400;18.566;2022-10-23T05:51:43;31.05;;;12.23;;
42364;SDS011;28498;54.400;18.566;2022-10-23T05:54:10;26.77;;;12.23;;
42364;SDS011;28498;54.400;18.566;2022-10-23T05:56:37;25.38;;;12.13;;
42364;SDS011;28498;54.400;18.566;2022-10-23T05:59:08;27.88;;;12.90;;
42364;SDS011;28498;54.400;18.566;2022-10-23T06:01:36;22.17;;;11.68;;
42364;SDS011;28498;54.400;18.566;2022-10-23T06:04:03;26.58;;;11.70;;
42364;SDS011;28498;54.400;18.566;2022-10-23T06:06:31;24.23;;;11.10;;
42364;SDS011;28498;54.400;18.566;2022-10-23T06:08:58;24.88;;;11.60;;
42364;SDS011;28498;54.400;18.566;2022-10-23T06:11:25;21.13;;;11.38;;
42364;SDS011;28498;54.400;18.566;2022-10-23T06:13:52;26.33;;;12.43;;
42364;SDS011;28498;54.400;18.566;2022-10-23T06:16:19;21.65;;;11.27;;
42364;SDS011;28498;54.400;18.566;2022-10-23T06:18:49;29.05;;;14.82;;
42364;SDS011;28498;54.400;18.566;2022-10-23T06:21:16;27.65;;;14.45;;
42364;SDS011;28498;54.400;18.566;2022-10-23T06:23:44;27.83;;;14.45;;
42364;SDS011;28498;54.400;18.566;2022-10-23T06:26:12;29.25;;;15.73;;
42364;SDS011;28498;54.400;18.566;2022-10-23T06:28:41;30.50;;;15.80;;
42364;SDS011;28498;54.400;18.566;2022-10-23T06:31:09;38.17;;;17.75;;
42364;SDS011;28498;54.400;18.566;2022-10-23T06:33:38;31.63;;;15.05;;
42364;SDS011;28498;54.400;18.566;2022-10-23T06:36:05;36.40;;;16.85;;
42364;SDS011;28498;54.400;18.566;2022-10-23T06:38:36;35.60;;;17.35;;
42364;SDS011;28498;54.400;18.566;2022-10-23T06:41:07;36.80;;;16.38;;
42364;SDS011;28498;54.400;18.566;2022-10-23T06:43:39;45.75;;;17.67;;
42364;SDS011;28498;54.400;18.566;2022-10-23T06:46:06;40.17;;;17.33;;
42364;SDS011;28498;54.400;18.566;2022-10-23T06:48:33;42.92;;;18.85;;
42364;SDS011;28498;54.400;18.566;2022-10-23T06:51:03;40.63;;;17.25;;
42364;SDS011;28498;54.400;18.566;2022-10-23T06:53:32;43.80;;;18.70;;
42364;SDS011;28498;54.400;18.566;2022-10-23T06:56:01;41.17;;;18.65;;
42364;SDS011;28498;54.400;18.566;2022-10-23T06:58:29;51.08;;;22.45;;
42364;SDS011;28498;54.400;18.566;2022-10-23T07:01:00;41.83;;;20.55;;
42364;SDS011;28498;54.400;18.566;2022-10-23T07:03:28;49.25;;;22.48;;
42364;SDS011;28498;54.400;18.566;2022-10-23T07:05:58;45.65;;;21.35;;
42364;SDS011;28498;54.400;18.566;2022-10-23T07:08:27;50.85;;;21.90;;
42364;SDS011;28498;54.400;18.566;2022-10-23T07:10:54;48.75;;;21.58;;
42364;SDS011;28498;54.400;18.566;2022-10-23T07:13:22;58.80;;;22.52;;
42364;SDS011;28498;54.400;18.566;2022-10-23T07:15:50;65.38;;;24.98;;
42364;SDS011;28498;54.400;18.566;2022-10-23T07:18:17;50.95;;;20.80;;
42364;SDS011;28498;54.400;18.566;2022-10-23T07:20:44;55.90;;;22.77;;
42364;SDS011;28498;54.400;18.566;2022-10-23T07:23:14;54.13;;;22.27;;
42364;SDS011;28498;54.400;18.566;2022-10-23T07:25:41;46.67;;;21.50;;
42364;SDS011;28498;54.400;18.566;2022-10-23T07:28:08;56.25;;;22.13;;
42364;SDS011;28498;54.400;18.566;2022-10-23T07:30:35;58.13;;;23.05;;
42364;SDS011;28498;54.400;18.566;2022-10-23T07:33:02;58.08;;;22.50;;
42364;SDS011;28498;54.400;18.566;2022-10-23T07:35:29;50.58;;;21.35;;
42364;SDS011;28498;54.400;18.566;2022-10-23T07:38:00;54.13;;;21.70;;
42364;SDS011;28498;54.400;18.566;2022-10-23T07:40:27;50.45;;;21.92;;
42364;SDS011;28498;54.400;18.566;2022-10-23T07:42:54;51.63;;;22.25;;
42364;SDS011;28498;54.400;18.566;2022-10-23T07:45:21;44.88;;;21.25;;
42364;SDS011;28498;54.400;18.566;2022-10-23T07:47:49;51.65;;;20.95;;
42364;SDS011;28498;54.400;18.566;2022-10-23T07:50:17;46.97;;;21.48;;
42364;SDS011;28498;54.400;18.566;2022-10-23T07:52:44;47.67;;;21.15;;
42364;SDS011;28498;54.400;18.566;2022-10-23T07:55:12;51.20;;;21.02;;
42364;SDS011;28498;54.400;18.566;2022-10-23T07:57:39;50.38;;;20.75;;
42364;SDS011;28498;54.400;18.566;2022-10-23T08:00:06;46.95;;;20.25;;
42364;SDS011;28498;54.400;18.566;2022-10-23T08:02:35;45.03;;;21.40;;
42364;SDS011;28498;54.400;18.566;2022-10-23T08:05:02;39.70;;;18.60;;
42364;SDS011;28498;54.400;18.566;2022-10-23T08:07:29;43.90;;;20.83;;
42364;SDS011;28498;54.400;18.566;2022-10-23T08:09:56;40.78;;;19.58;;
42364;SDS011;28498;54.400;18.566;2022-10-23T08:12:23;46.00;;;22.88;;
42364;SDS011;28498;54.400;18.566;2022-10-23T08:14:50;48.28;;;21.20;;
42364;SDS011;28498;54.400;18.566;2022-10-23T08:17:17;51.63;;;23.08;;
42364;SDS011;28498;54.400;18.566;2022-10-23T08:19:44;37.88;;;19.98;;
42364;SDS011;28498;54.400;18.566;2022-10-23T08:22:13;42.67;;;19.17;;
42364;SDS011;28498;54.400;18.566;2022-10-23T08:24:41;40.20;;;20.20;;
42364;SDS011;28498;54.400;18.566;2022-10-23T08:27:08;41.50;;;21.58;;
42364;SDS011;28498;54.400;18.566;2022-10-23T08:29:35;38.95;;;20.77;;
42364;SDS011;28498;54.400;18.566;2022-10-23T08:32:02;33.85;;;17.65;;
42364;SDS011;28498;54.400;18.566;2022-10-23T08:34:29;31.13;;;17.13;;
42364;SDS011;28498;54.400;18.566;2022-10-23T08:36:56;32.55;;;18.13;;
42364;SDS011;28498;54.400;18.566;2022-10-23T08:39:23;28.33;;;15.75;;
42364;SDS011;28498;54.400;18.566;2022-10-23T08:41:50;29.00;;;15.77;;
42364;SDS011;28498;54.400;18.566;2022-10-23T08:49:42;24.38;;;14.77;;
42364;SDS011;28498;54.400;18.566;2022-10-23T08:52:33;20.33;;;12.18;;
42364;SDS011;28498;54.400;18.566;2022-10-23T08:55:11;20.77;;;11.73;;
42364;SDS011;28498;54.400;18.566;2022-10-23T08:58:00;16.90;;;11.02;;
42364;SDS011;28498;54.400;18.566;2022-10-23T09:00:32;20.95;;;10.90;;
42364;SDS011;28498;54.400;18.566;2022-10-23T09:03:00;18.90;;;11.18;;
42364;SDS011;28498;54.400;18.566;2022-10-23T09:06:05;19.08;;;10.60;;
42364;SDS011;28498;54.400;18.566;2022-10-23T09:08:43;14.52;;;8.90;;
42364;SDS011;28498;54.400;18.566;2022-10-23T09:11:38;11.77;;;7.05;;
42364;SDS011;28498;54.400;18.566;2022-10-23T09:17:01;13.70;;;6.43;;
42364;SDS011;28498;54.400;18.566;2022-10-23T09:19:43;15.13;;;7.10;;
42364;SDS011;28498;54.400;18.566;2022-10-23T09:22:11;12.63;;;7.10;;
42364;SDS011;28498;54.400;18.566;2022-10-23T09:24:41;11.43;;;6.80;;
42364;SDS011;28498;54.400;18.566;2022-10-23T09:27:11;13.02;;;6.45;;
42364;SDS011;28498;54.400;18.566;2022-10-23T09:29:49;11.23;;;6.22;;
42364;SDS011;28498;54.400;18.566;2022-10-23T09:32:18;10.73;;;6.68;;
42364;SDS011;28498;54.400;18.566;2022-10-23T09:34:53;8.27;;;5.93;;
42364;SDS011;28498;54.400;18.566;2022-10-23T09:39:47;7.53;;;4.68;;
42364;SDS011;28498;54.400;18.566;2022-10-23T09:42:24;10.93;;;5.45;;
42364;SDS011;28498;54.400;18.566;2022-10-23T09:44:52;9.75;;;4.88;;
42364;SDS011;28498;54.400;18.566;2022-10-23T09:47:21;8.82;;;5.40;;
42364;SDS011;28498;54.400;18.566;2022-10-23T09:49:50;9.70;;;4.78;;
42364;SDS011;28498;54.400;18.566;2022-10-23T09:52:37;10.05;;;5.10;;
42364;SDS011;28498;54.400;18.566;2022-10-23T09:55:20;6.72;;;4.40;;
42364;SDS011;28498;54.400;18.566;2022-10-23T09:57:50;11.52;;;6.35;;
42364;SDS011;28498;54.400;18.566;2022-10-23T10:00:20;7.30;;;4.43;;
42364;SDS011;28498;54.400;18.566;2022-10-23T10:05:23;6.88;;;4.35;;
42364;SDS011;28498;54.400;18.566;2022-10-23T10:08:04;6.25;;;3.63;;
42364;SDS011;28498;54.400;18.566;2022-10-23T10:10:34;6.43;;;3.92;;
42364;SDS011;28498;54.400;18.566;2022-10-23T10:13:14;5.60;;;4.05;;
42364;SDS011;28498;54.400;18.566;2022-10-23T10:26:25;6.07;;;3.30;;
42364;SDS011;28498;54.400;18.566;2022-10-23T10:32:30;5.45;;;3.30;;
42364;SDS011;28498;54.400;18.566;2022-10-23T10:35:18;6.93;;;4.68;;
42364;SDS011;28498;54.400;18.566;2022-10-23T10:49:27;6.32;;;3.17;;
42364;SDS011;28498;54.400;18.566;2022-10-23T10:52:24;4.65;;;2.55;;
42364;SDS011;28498;54.400;18.566;2022-10-23T10:58:52;6.13;;;3.22;;
42364;SDS011;28498;54.400;18.566;2022-10-23T11:01:27;7.38;;;4.03;;
42364;SDS011;28498;54.400;18.566;2022-10-23T11:07:00;4.93;;;2.78;;
42364;SDS011;28498;54.400;18.566;2022-10-23T11:09:33;6.28;;;3.75;;
42364;SDS011;28498;54.400;18.566;2022-10-23T11:12:00;4.90;;;2.58;;
42364;SDS011;28498;54.400;18.566;2022-10-23T11:14:28;4.57;;;2.20;;
42364;SDS011;28498;54.400;18.566;2022-10-23T11:19:40;7.57;;;3.92;;
42364;SDS011;28498;54.400;18.566;2022-10-23T11:22:23;5.70;;;2.45;;
42364;SDS011;28498;54.400;18.566;2022-10-23T11:25:17;4.20;;;1.90;;
42364;SDS011;28498;54.400;18.566;2022-10-23T11:36:16;6.72;;;2.80;;
42364;SDS011;28498;54.400;18.566;2022-10-23T11:39:11;4.15;;;2.00;;
42364;SDS011;28498;54.400;18.566;2022-10-23T11:41:47;6.75;;;2.40;;
42364;SDS011;28498;54.400;18.566;2022-10-23T11:44:40;4.72;;;2.35;;
42364;SDS011;28498;54.400;18.566;2022-10-23T11:49:50;6.75;;;3.20;;
42364;SDS011;28498;54.400;18.566;2022-10-23T11:52:30;6.10;;;2.50;;
42364;SDS011;28498;54.400;18.566;2022-10-23T11:55:01;5.50;;;2.50;;
42364;SDS011;28498;54.400;18.566;2022-10-23T11:57:29;4.90;;;2.63;;
42364;SDS011;28498;54.400;18.566;2022-10-23T11:59:56;4.35;;;2.30;;
42364;SDS011;28498;54.400;18.566;2022-10-23T12:05:03;6.07;;;2.20;;
42364;SDS011;28498;54.400;18.566;2022-10-23T12:07:35;6.70;;;2.35;;
42364;SDS011;28498;54.400;18.566;2022-10-23T12:12:53;7.63;;;2.47;;
42364;SDS011;28498;54.400;18.566;2022-10-23T12:15:22;4.45;;;2.65;;
42364;SDS011;28498;54.400;18.566;2022-10-23T12:17:51;4.20;;;2.60;;
42364;SDS011;28498;54.400;18.566;2022-10-23T12:20:24;4.80;;;2.50;;
42364;SDS011;28498;54.400;18.566;2022-10-23T12:26:13;5.70;;;2.40;;
42364;SDS011;28498;54.400;18.566;2022-10-23T12:31:57;5.43;;;2.38;;
42364;SDS011;28498;54.400;18.566;2022-10-23T12:37:21;5.25;;;2.38;;
42364;SDS011;28498;54.400;18.566;2022-10-23T12:40:09;5.75;;;2.85;;
42364;SDS011;28498;54.400;18.566;2022-10-23T12:42:37;5.65;;;2.25;;
42364;SDS011;28498;54.400;18.566;2022-10-23T12:45:13;3.65;;;2.15;;
42364;SDS011;28498;54.400;18.566;2022-10-23T12:47:46;4.75;;;2.10;;
42364;SDS011;28498;54.400;18.566;2022-10-23T12:50:19;3.80;;;1.92;;
42364;SDS011;28498;54.400;18.566;2022-10-23T12:52:56;4.65;;;2.28;;
42364;SDS011;28498;54.400;18.566;2022-10-23T12:58:30;4.25;;;1.88;;
42364;SDS011;28498;54.400;18.566;2022-10-23T13:00:59;5.32;;;2.28;;
42364;SDS011;28498;54.400;18.566;2022-10-23T13:03:28;6.97;;;2.90;;
42364;SDS011;28498;54.400;18.566;2022-10-23T13:05:57;4.20;;;2.10;;
42364;SDS011;28498;54.400;18.566;2022-10-23T13:08:30;8.07;;;2.65;;
42364;SDS011;28498;54.400;18.566;2022-10-23T13:11:05;5.07;;;2.35;;
42364;SDS011;28498;54.400;18.566;2022-10-23T13:13:37;5.47;;;2.53;;
42364;SDS011;28498;54.400;18.566;2022-10-23T13:16:15;4.38;;;2.30;;
42364;SDS011;28498;54.400;18.566;2022-10-23T13:18:44;6.07;;;2.50;;
42364;SDS011;28498;54.400;18.566;2022-10-23T13:21:22;4.95;;;2.30;;
42364;SDS011;28498;54.400;18.566;2022-10-23T13:23:50;5.00;;;2.55;;
42364;SDS011;28498;54.400;18.566;2022-10-23T13:26:36;4.05;;;2.22;;
42364;SDS011;28498;54.400;18.566;2022-10-23T13:29:20;5.35;;;2.75;;
42364;SDS011;28498;54.400;18.566;2022-10-23T13:31:56;4.88;;;2.53;;
42364;SDS011;28498;54.400;18.566;2022-10-23T13:39:41;6.18;;;2.33;;
42364;SDS011;28498;54.400;18.566;2022-10-23T13:42:12;4.70;;;2.35;;
42364;SDS011;28498;54.400;18.566;2022-10-23T13:44:39;6.35;;;3.67;;
42364;SDS011;28498;54.400;18.566;2022-10-23T13:47:10;5.40;;;2.25;;
42364;SDS011;28498;54.400;18.566;2022-10-23T13:49:38;5.03;;;2.30;;
42364;SDS011;28498;54.400;18.566;2022-10-23T13:52:07;4.28;;;2.40;;
42364;SDS011;28498;54.400;18.566;2022-10-23T13:54:38;6.47;;;2.75;;
42364;SDS011;28498;54.400;18.566;2022-10-23T13:57:05;7.18;;;4.07;;
42364;SDS011;28498;54.400;18.566;2022-10-23T13:59:36;5.63;;;2.58;;
42364;SDS011;28498;54.400;18.566;2022-10-23T14:02:05;4.32;;;2.67;;
42364;SDS011;28498;54.400;18.566;2022-10-23T14:04:46;6.53;;;2.78;;
42364;SDS011;28498;54.400;18.566;2022-10-23T14:07:15;6.45;;;2.58;;
42364;SDS011;28498;54.400;18.566;2022-10-23T14:09:42;8.85;;;2.42;;
42364;SDS011;28498;54.400;18.566;2022-10-23T14:12:09;26.08;;;3.15;;
42364;SDS011;28498;54.400;18.566;2022-10-23T14:14:37;5.28;;;2.63;;
42364;SDS011;28498;54.400;18.566;2022-10-23T14:17:04;8.68;;;2.85;;
42364;SDS011;28498;54.400;18.566;2022-10-23T14:19:34;3.80;;;2.42;;
42364;SDS011;28498;54.400;18.566;2022-10-23T14:22:02;6.30;;;2.40;;
42364;SDS011;28498;54.400;18.566;2022-10-23T14:24:29;7.72;;;2.65;;
42364;SDS011;28498;54.400;18.566;2022-10-23T14:26:56;6.05;;;2.35;;
42364;SDS011;28498;54.400;18.566;2022-10-23T14:29:23;5.47;;;2.50;;
42364;SDS011;28498;54.400;18.566;2022-10-23T14:31:50;5.60;;;2.20;;
42364;SDS011;28498;54.400;18.566;2022-10-23T14:34:17;5.38;;;2.20;;
42364;SDS011;28498;54.400;18.566;2022-10-23T14:36:44;4.53;;;2.38;;
42364;SDS011;28498;54.400;18.566;2022-10-23T14:39:21;8.77;;;2.63;;
42364;SDS011;28498;54.400;18.566;2022-10-23T14:41:48;5.07;;;2.63;;
42364;SDS011;28498;54.400;18.566;2022-10-23T14:44:15;3.80;;;2.20;;
42364;SDS011;28498;54.400;18.566;2022-10-23T14:46:42;5.72;;;3.17;;
42364;SDS011;28498;54.400;18.566;2022-10-23T14:49:09;7.03;;;3.78;;
42364;SDS011;28498;54.400;18.566;2022-10-23T14:51:36;6.47;;;3.97;;
42364;SDS011;28498;54.400;18.566;2022-10-23T14:54:04;5.95;;;2.90;;
42364;SDS011;28498;54.400;18.566;2022-10-23T14:56:33;7.57;;;3.63;;
42364;SDS011;28498;54.400;18.566;2022-10-23T14:59:03;5.90;;;3.08;;
42364;SDS011;28498;54.400;18.566;2022-10-23T15:01:34;7.50;;;3.40;;
42364;SDS011;28498;54.400;18.566;2022-10-23T15:04:10;7.80;;;3.30;;
42364;SDS011;28498;54.400;18.566;2022-10-23T15:06:40;5.25;;;2.80;;
42364;SDS011;28498;54.400;18.566;2022-10-23T15:09:07;6.03;;;3.10;;
42364;SDS011;28498;54.400;18.566;2022-10-23T15:11:34;5.68;;;3.20;;
42364;SDS011;28498;54.400;18.566;2022-10-23T15:14:01;11.38;;;3.72;;
42364;SDS011;28498;54.400;18.566;2022-10-23T15:16:28;7.00;;;2.78;;
42364;SDS011;28498;54.400;18.566;2022-10-23T15:18:56;7.63;;;3.92;;
42364;SDS011;28498;54.400;18.566;2022-10-23T15:21:23;7.10;;;3.92;;
42364;SDS011;28498;54.400;18.566;2022-10-23T15:23:50;5.20;;;3.45;;
42364;SDS011;28498;54.400;18.566;2022-10-23T15:26:18;8.40;;;3.60;;
42364;SDS011;28498;54.400;18.566;2022-10-23T15:28:52;8.27;;;3.90;;
42364;SDS011;28498;54.400;18.566;2022-10-23T15:34:09;6.85;;;3.92;;
42364;SDS011;28498;54.400;18.566;2022-10-23T15:36:39;6.93;;;3.17;;
42364;SDS011;28498;54.400;18.566;2022-10-23T15:39:07;10.68;;;3.95;;
42364;SDS011;28498;54.400;18.566;2022-10-23T15:41:36;5.40;;;3.40;;
42364;SDS011;28498;54.400;18.566;2022-10-23T15:44:04;7.72;;;4.20;;
42364;SDS011;28498;54.400;18.566;2022-10-23T15:46:32;8.38;;;3.90;;
42364;SDS011;28498;54.400;18.566;2022-10-23T15:48:59;7.88;;;3.78;;
42364;SDS011;28498;54.400;18.566;2022-10-23T15:51:26;12.38;;;3.90;;
42364;SDS011;28498;54.400;18.566;2022-10-23T15:53:53;7.57;;;4.15;;
42364;SDS011;28498;54.400;18.566;2022-10-23T15:56:22;9.38;;;5.22;;
42364;SDS011;28498;54.400;18.566;2022-10-23T15:58:50;11.43;;;4.13;;
42364;SDS011;28498;54.400;18.566;2022-10-23T16:01:17;6.50;;;4.65;;
42364;SDS011;28498;54.400;18.566;2022-10-23T16:03:44;8.23;;;5.07;;
42364;SDS011;28498;54.400;18.566;2022-10-23T16:06:13;10.15;;;4.50;;
42364;SDS011;28498;54.400;18.566;2022-10-23T16:08:41;8.15;;;5.25;;
42364;SDS011;28498;54.400;18.566;2022-10-23T16:11:13;11.40;;;5.88;;
42364;SDS011;28498;54.400;18.566;2022-10-23T16:13:45;13.52;;;5.30;;
42364;SDS011;28498;54.400;18.566;2022-10-23T16:16:13;10.40;;;5.35;;
42364;SDS011;28498;54.400;18.566;2022-10-23T16:18:40;10.75;;;5.35;;
42364;SDS011;28498;54.400;18.566;2022-10-23T16:21:15;11.27;;;5.28;;
42364;SDS011;28498;54.400;18.566;2022-10-23T16:23:44;11.25;;;6.13;;
42364;SDS011;28498;54.400;18.566;2022-10-23T16:26:12;11.35;;;5.68;;
42364;SDS011;28498;54.400;18.566;2022-10-23T16:28:39;11.93;;;5.25;;
42364;SDS011;28498;54.400;18.566;2022-10-23T16:31:09;9.05;;;6.10;;
42364;SDS011;28498;54.400;18.566;2022-10-23T16:36:09;15.75;;;6.63;;